SILO ALERT LOG
| Silo ID | Alert Type | Alert Message | Silo Type | Points | Depth (mm) | Strength | Temperature (°C) | Humidity (%) | Height (mm) | Volume (㎥) | Weight (t) | Flag | Time |
|---|---|---|---|---|---|---|---|---|---|---|---|---|---|
| DJSAD03 | Humidity | 습도센서 측정값이 80% 초과 | 평 | 446 | 1783 | 6165 | 3.1 | 84.5 | 6996 | 289.61 | 183.092 | 0 | 2024-01-13 00:39:40.000 |
| DJSAD01 | Humidity | 습도센서 측정값이 80% 초과 | 평 | 463 | 1624 | 7364 | 1.4 | 85.8 | 7155 | 296.22 | 187.27 | 0 | 2024-01-13 00:39:40.000 |
| DJDJD03 | Humidity | 습도센서 측정값이 80% 초과 | 평 | 50 | 4474 | 5166 | 2.7 | 81.9 | 3205 | 388.405 | 245.55 | 0 | 2024-01-13 00:39:39.000 |
| DJSAD02 | Humidity | 습도센서 측정값이 80% 초과 | 평 | 384 | 1140 | 4264 | 2.1 | 85.7 | 7639 | 316.249 | 199.933 | 11 | 2024-01-13 00:39:38.000 |
| DJSAD11 | Humidity | 습도센서 측정값이 80% 초과 | 평 | 331 | 1637 | 3303 | 1.6 | 80.3 | 5942 | 845.61 | 534.594 | 11 | 2024-01-13 00:39:35.000 |
| DJSSD01 | Humidity | 습도센서 측정값이 80% 초과 | 평 | 800 | 2561 | 4650 | 5.5 | 83.3 | 5518 | 768.059 | 485.567 | 0 | 2024-01-13 00:39:33.000 |
| DJSAD16 | Humidity | 습도센서 측정값이 80% 초과 | 평 | 93 | 6485 | 3408 | 4.6 | 80.3 | 1094 | 108.965 | 68.888 | 11 | 2024-01-13 00:39:33.000 |
| DJSSD04 | Temperature | 온도센서 상태 이상 | 평 | 0 | 8200 | 0 | -999 | -999 | -120 | -16.702 | 0 | 31 | 2024-01-13 00:39:33.000 |
| DJSSD11 | Temperature | 온도센서 측정값이 0도 미만 | 호퍼 | 449 | 7391 | 153 | -4.2 | 70.1 | 3838 | 28.855 | 15.726 | 0 | 2024-01-13 00:39:32.000 |
| DJSSD05 | Temperature | 온도센서 측정값이 0도 미만 | 평 | 843 | 2540 | 4879 | -45.4 | 43.7 | 5539 | 771.032 | 487.447 | 0 | 2024-01-13 00:39:32.000 |
| DJHNR01 | Humidity | 습도센서 측정값이 80% 초과 | 호퍼 | 471 | 4315 | 4894 | 5.4 | 99.9 | 11064 | 472.262 | 298.564 | 13 | 2024-01-13 00:39:32.000 |
| DJSAD08 | Humidity | 습도센서 측정값이 80% 초과 | 평 | 572 | 2330 | 4856 | 8.1 | 83.6 | 5249 | 746.921 | 472.204 | 12 | 2024-01-13 00:39:31.000 |
| DJDJD04 | Humidity | 습도센서 측정값이 80% 초과 | 평 | 282 | 4179 | 4489 | 3.7 | 81.3 | 3500 | 424.061 | 268.092 | 11 | 2024-01-13 00:39:31.000 |
| DJHNR11 | Temperature | 온도센서 측정값이 0도 미만 | 호퍼 | 95 | 5218 | 234 | -3.9 | 75.7 | 5161 | 57.405 | 36.292 | 11 | 2024-01-13 00:39:31.000 |
| DJSSD09 | Temperature | 온도센서 측정값이 0도 미만 | 평 | 118 | 2917 | 3317 | -45.4 | 0 | 4762 | 662.851 | 419.055 | 11 | 2024-01-13 00:39:31.000 |
| DJSAD18 | Humidity | 습도센서 측정값이 80% 초과 | 평 | 119 | 1369 | 5851 | 4.9 | 80.8 | 6210 | 618.472 | 390.998 | 11 | 2024-01-13 00:39:30.000 |
| DJHNR14 | Temperature | 온도센서 측정값이 0도 미만 | 호퍼 | 42 | 3146 | 4436 | -3.5 | 72.8 | 7233 | 102.073 | 64.531 | 11 | 2024-01-13 00:39:30.000 |
| DJSAD17 | Humidity | 습도센서 측정값이 80% 초과 | 평 | 444 | 3114 | 4761 | 4 | 81.2 | 4465 | 444.698 | 281.138 | 0 | 2024-01-13 00:39:30.000 |
| DJHNR13 | Temperature | 온도센서 측정값이 0도 미만 | 호퍼 | 11 | 2943 | 3079 | -2.7 | 68.2 | 7436 | 106.454 | 67.3 | 0 | 2024-01-13 00:39:29.000 |
| DJSSD12 | Temperature | 온도센서 상태 이상 | 호퍼 | 0 | 11350 | 0 | -999 | -999 | -120 | 0 | 0 | 31 | 2024-01-13 00:39:24.000 |
[첫 페이지] [9973] [9974] [9975] [9976] 9977 [9978] [9979] [9980] [9981] [마지막 페이지]